createdAt,value
2022-07-31T00:01:31.393Z,16.10
2022-07-31T00:04:00.572Z,17.17
2022-07-31T00:06:29.319Z,16.67
2022-07-31T00:08:58.209Z,14.93
2022-07-31T00:11:28.420Z,11.87
2022-07-31T00:13:58.735Z,13.53
2022-07-31T00:16:27.642Z,12.50
2022-07-31T00:18:56.524Z,11.57
2022-07-31T00:21:25.590Z,12.07
2022-07-31T00:23:54.663Z,11.97
2022-07-31T00:26:23.628Z,11.93
2022-07-31T00:28:54.174Z,11.30
2022-07-31T00:31:22.953Z,12.97
2022-07-31T00:33:51.812Z,13.00
2022-07-31T00:36:20.590Z,11.83
2022-07-31T00:38:58.943Z,12.30
2022-07-31T00:41:37.886Z,12.67
2022-07-31T00:44:09.763Z,12.40
2022-07-31T00:46:41.569Z,11.70
2022-07-31T00:49:11.538Z,12.00
2022-07-31T00:51:41.184Z,12.40
2022-07-31T00:54:16.296Z,11.93
2022-07-31T00:56:52.113Z,13.87
2022-07-31T00:59:24.593Z,12.60
2022-07-31T01:01:54.398Z,11.83
2022-07-31T01:04:23.181Z,12.30
2022-07-31T01:06:52.768Z,11.47
2022-07-31T01:09:21.720Z,12.43
2022-07-31T01:11:55.931Z,12.50
2022-07-31T01:14:29.937Z,13.90
2022-07-31T01:17:01.735Z,15.00
2022-07-31T01:19:42.084Z,13.37
2022-07-31T01:22:33.225Z,14.00
2022-07-31T01:25:11.253Z,14.13
2022-07-31T01:28:05.666Z,15.80
2022-07-31T01:30:41.964Z,14.83
2022-07-31T01:33:16.664Z,15.17
2022-07-31T01:35:50.804Z,15.27
2022-07-31T01:38:24.416Z,16.13
2022-07-31T01:40:59.439Z,15.50
2022-07-31T01:43:33.836Z,15.20
2022-07-31T01:46:06.115Z,15.60
2022-07-31T01:48:36.695Z,15.07
2022-07-31T01:51:08.921Z,14.83
2022-07-31T01:53:39.309Z,15.90
2022-07-31T01:56:09.574Z,15.93
2022-07-31T01:58:41.493Z,16.53
2022-07-31T02:01:27.082Z,17.53
2022-07-31T02:04:00.445Z,18.07
2022-07-31T02:06:32.183Z,16.60
2022-07-31T02:09:03.648Z,16.50
2022-07-31T02:11:33.261Z,16.90
2022-07-31T02:14:15.680Z,18.13
2022-07-31T02:16:46.514Z,17.93
2022-07-31T02:19:23.795Z,17.83
2022-07-31T02:21:52.795Z,18.10
2022-07-31T02:24:23.243Z,17.97
2022-07-31T02:26:52.959Z,19.53
2022-07-31T02:29:22.604Z,18.40
2022-07-31T02:32:02.767Z,16.90
2022-07-31T02:34:36.144Z,17.10
2022-07-31T02:37:05.547Z,18.43
2022-07-31T02:39:35.858Z,21.43
2022-07-31T02:42:06.000Z,19.67
2022-07-31T02:44:35.859Z,19.33
2022-07-31T02:47:06.536Z,18.57
2022-07-31T02:49:36.311Z,16.17
2022-07-31T02:52:07.193Z,16.00
2022-07-31T02:54:39.552Z,17.03
2022-07-31T02:57:09.318Z,19.13
2022-07-31T02:59:39.050Z,16.90
2022-07-31T03:02:09.336Z,18.13
2022-07-31T03:04:44.249Z,19.03
2022-07-31T03:07:13.074Z,22.30
2022-07-31T03:09:42.800Z,22.83
2022-07-31T03:12:30.217Z,18.73
2022-07-31T03:15:00.878Z,20.33
2022-07-31T03:17:40.930Z,20.97
2022-07-31T03:20:15.100Z,19.90
2022-07-31T03:22:44.686Z,19.50
2022-07-31T03:25:21.359Z,18.63
2022-07-31T03:27:55.702Z,17.90
2022-07-31T03:30:26.538Z,17.37
2022-07-31T03:33:02.938Z,17.23
2022-07-31T03:35:34.282Z,18.67
2022-07-31T03:38:40.501Z,17.53
2022-07-31T03:40:58.056Z,17.73
2022-07-31T03:43:27.336Z,19.73
2022-07-31T03:46:00.243Z,22.83
2022-07-31T03:48:31.999Z,21.87
2022-07-31T03:51:01.922Z,23.03
2022-07-31T03:53:33.815Z,23.20
2022-07-31T03:56:06.544Z,22.10
2022-07-31T03:58:36.744Z,23.50
2022-07-31T04:01:12.092Z,21.67
2022-07-31T04:03:43.170Z,23.37
2022-07-31T04:06:34.823Z,23.43
2022-07-31T04:09:10.486Z,23.57
2022-07-31T04:11:48.469Z,22.63
2022-07-31T04:14:18.098Z,22.67
2022-07-31T04:16:47.561Z,23.40
2022-07-31T04:19:17.723Z,26.27
2022-07-31T04:21:46.489Z,26.20
2022-07-31T04:24:17.934Z,25.30
2022-07-31T04:26:57.060Z,26.03
2022-07-31T04:29:33.104Z,26.80
2022-07-31T04:32:02.223Z,23.97
2022-07-31T04:34:37.471Z,25.73
2022-07-31T04:37:06.499Z,25.57
2022-07-31T04:39:35.535Z,24.07
2022-07-31T04:42:04.457Z,26.80
2022-07-31T04:44:33.788Z,26.90
2022-07-31T04:47:03.529Z,27.07
2022-07-31T04:49:37.099Z,27.17
2022-07-31T04:52:07.893Z,27.67
2022-07-31T04:54:38.670Z,26.07
2022-07-31T04:57:10.073Z,25.57
2022-07-31T04:59:57.913Z,25.40
2022-07-31T05:02:27.753Z,28.43
2022-07-31T05:04:57.963Z,27.60
2022-07-31T05:07:51.479Z,55.33
2022-07-31T05:10:39.724Z,27.73
2022-07-31T05:13:08.651Z,28.20
2022-07-31T05:15:37.323Z,25.97
2022-07-31T05:18:07.817Z,27.00
2022-07-31T05:21:01.166Z,25.20
2022-07-31T05:23:52.121Z,27.93
2022-07-31T05:26:36.665Z,28.60
2022-07-31T05:29:05.750Z,28.77
2022-07-31T05:31:34.766Z,29.07
2022-07-31T05:34:03.610Z,28.43
2022-07-31T05:36:33.965Z,26.03
2022-07-31T05:39:03.174Z,27.30
2022-07-31T05:41:34.987Z,24.83
2022-07-31T05:44:23.888Z,26.23
2022-07-31T05:49:22.418Z,27.50
2022-07-31T05:51:55.805Z,26.03
2022-07-31T05:54:24.738Z,26.57
2022-07-31T05:57:11.916Z,24.57
2022-07-31T06:00:00.734Z,26.53
2022-07-31T06:02:40.535Z,26.60
2022-07-31T06:05:28.047Z,26.90
2022-07-31T06:07:58.689Z,27.73
2022-07-31T06:10:30.719Z,27.67
2022-07-31T06:12:59.575Z,27.10
2022-07-31T06:15:30.246Z,30.27
2022-07-31T06:18:02.145Z,29.13
2022-07-31T06:20:31.519Z,27.80
2022-07-31T06:23:02.197Z,26.70
2022-07-31T06:25:49.679Z,27.13
2022-07-31T06:28:18.907Z,26.63
2022-07-31T06:30:50.578Z,25.70
2022-07-31T06:33:24.881Z,27.43
2022-07-31T06:36:06.105Z,25.83
2022-07-31T06:38:44.398Z,26.83
2022-07-31T06:41:47.556Z,26.47
2022-07-31T06:44:45.915Z,27.30
2022-07-31T06:47:33.611Z,28.70
2022-07-31T06:50:05.970Z,28.20
2022-07-31T06:52:43.446Z,28.33
2022-07-31T06:55:14.941Z,27.17
2022-07-31T06:57:43.765Z,28.80
2022-07-31T07:00:15.216Z,29.60
2022-07-31T07:02:50.823Z,25.13
2022-07-31T07:05:21.145Z,26.03
2022-07-31T07:07:52.978Z,24.83
2022-07-31T07:10:23.452Z,25.33
2022-07-31T07:13:01.408Z,28.50
2022-07-31T07:15:34.694Z,27.23
2022-07-31T07:18:03.557Z,27.13
2022-07-31T07:20:46.219Z,25.93
2022-07-31T07:23:15.003Z,25.50
2022-07-31T07:26:00.408Z,27.00
2022-07-31T07:28:31.055Z,24.60
2022-07-31T07:31:02.730Z,27.10
2022-07-31T07:33:41.353Z,24.00
2022-07-31T07:36:21.742Z,25.70
2022-07-31T07:39:04.186Z,24.57
2022-07-31T07:41:36.550Z,25.17
2022-07-31T07:44:06.463Z,25.03
2022-07-31T07:46:36.186Z,27.37
2022-07-31T07:49:07.007Z,26.87
2022-07-31T07:51:59.660Z,24.67
2022-07-31T07:54:49.422Z,24.27
2022-07-31T07:57:25.467Z,26.33
2022-07-31T08:00:14.110Z,26.17
2022-07-31T08:03:02.665Z,26.00
2022-07-31T08:05:37.304Z,28.57
2022-07-31T08:08:06.251Z,24.80
2022-07-31T08:10:50.274Z,26.03
2022-07-31T08:13:47.887Z,28.20
2022-07-31T08:16:44.774Z,26.57
2022-07-31T08:19:13.529Z,24.00
2022-07-31T08:21:42.329Z,27.07
2022-07-31T08:24:11.690Z,26.70
2022-07-31T08:26:54.891Z,25.30
2022-07-31T08:29:27.499Z,25.57
2022-07-31T08:32:13.736Z,24.40
2022-07-31T08:35:02.516Z,26.20
2022-07-31T08:38:01.345Z,24.33
2022-07-31T08:40:23.239Z,25.00
2022-07-31T08:42:52.151Z,24.27
2022-07-31T08:45:22.733Z,27.13
2022-07-31T08:48:16.057Z,23.03
2022-07-31T08:50:53.796Z,20.70
2022-07-31T08:53:43.856Z,21.40
2022-07-31T08:56:18.890Z,22.73
2022-07-31T08:58:48.271Z,19.17
2022-07-31T09:01:18.609Z,21.70
2022-07-31T09:03:48.199Z,19.07
2022-07-31T09:06:19.448Z,18.03
2022-07-31T09:08:48.427Z,21.03
2022-07-31T09:11:17.159Z,19.53
2022-07-31T09:14:01.728Z,20.50
2022-07-31T09:17:00.735Z,21.37
2022-07-31T09:19:52.756Z,18.43
2022-07-31T09:22:31.645Z,23.33
2022-07-31T09:25:13.339Z,24.60
2022-07-31T09:27:42.573Z,20.53
2022-07-31T09:30:12.974Z,19.13
2022-07-31T09:33:20.440Z,41.90
2022-07-31T09:36:16.297Z,22.33
2022-07-31T09:38:50.892Z,19.73
2022-07-31T09:41:56.475Z,19.87
2022-07-31T09:44:44.291Z,18.07
2022-07-31T09:47:23.141Z,18.33
2022-07-31T09:49:59.732Z,19.53
2022-07-31T09:52:30.615Z,19.17
2022-07-31T09:55:15.622Z,19.13
2022-07-31T09:57:55.706Z,18.43
2022-07-31T10:00:26.059Z,18.70
2022-07-31T10:02:56.284Z,18.67
2022-07-31T10:05:29.866Z,18.97
2022-07-31T10:08:03.026Z,19.10
2022-07-31T10:10:50.297Z,19.97
2022-07-31T10:13:28.095Z,19.33
2022-07-31T10:16:01.144Z,19.10
2022-07-31T10:19:01.215Z,18.67
2022-07-31T10:21:42.385Z,20.37
2022-07-31T10:24:27.758Z,22.63
2022-07-31T10:27:10.958Z,23.87
2022-07-31T10:29:42.140Z,23.57
2022-07-31T10:32:11.786Z,27.23
2022-07-31T10:34:54.869Z,28.23
2022-07-31T10:37:59.986Z,26.33
2022-07-31T10:40:58.154Z,29.77
2022-07-31T10:43:30.631Z,28.80
2022-07-31T10:46:09.831Z,27.50
2022-07-31T10:48:54.352Z,26.37
2022-07-31T10:51:50.359Z,25.10
2022-07-31T10:54:45.818Z,24.50
2022-07-31T10:57:56.843Z,23.33
2022-07-31T11:00:45.879Z,23.13
2022-07-31T11:03:24.275Z,21.60
2022-07-31T11:06:11.767Z,23.17
2022-07-31T11:08:58.293Z,23.10
2022-07-31T11:12:03.602Z,24.13
2022-07-31T11:14:43.234Z,23.30
2022-07-31T11:18:21.301Z,23.33
2022-07-31T11:20:34.211Z,23.60
2022-07-31T11:23:05.165Z,22.50
2022-07-31T11:25:36.450Z,23.90
2022-07-31T11:28:23.753Z,26.13
2022-07-31T11:30:54.543Z,22.47
2022-07-31T11:33:42.697Z,23.20
2022-07-31T11:36:14.404Z,23.60
2022-07-31T11:38:47.563Z,23.87
2022-07-31T11:41:16.766Z,26.63
2022-07-31T11:43:48.587Z,26.00
2022-07-31T11:46:26.227Z,24.73
2022-07-31T11:48:55.837Z,24.20
2022-07-31T11:51:25.444Z,24.27
2022-07-31T11:53:56.965Z,23.40
2022-07-31T11:56:28.140Z,23.80
2022-07-31T11:58:59.601Z,22.20
2022-07-31T12:01:29.612Z,24.73
2022-07-31T12:04:08.506Z,25.23
2022-07-31T12:06:38.730Z,24.07
2022-07-31T12:09:07.579Z,24.03
2022-07-31T12:11:56.673Z,23.57
2022-07-31T12:14:34.341Z,22.70
2022-07-31T12:17:05.286Z,23.40
2022-07-31T12:19:37.398Z,25.10
2022-07-31T12:22:15.203Z,26.47
2022-07-31T12:24:44.449Z,28.13
2022-07-31T12:27:16.651Z,24.00
2022-07-31T12:29:47.042Z,24.53
2022-07-31T12:32:26.039Z,25.43
2022-07-31T12:35:03.981Z,24.13
2022-07-31T12:37:43.276Z,28.53
2022-07-31T12:40:22.752Z,29.97
2022-07-31T12:42:51.487Z,25.63
2022-07-31T12:45:32.395Z,23.73
2022-07-31T12:48:01.421Z,23.17
2022-07-31T12:50:31.726Z,20.87
2022-07-31T12:53:02.693Z,14.87
2022-07-31T12:55:33.412Z,21.43
2022-07-31T12:58:02.301Z,17.07
2022-07-31T13:00:35.771Z,25.37
2022-07-31T13:03:07.319Z,24.43
2022-07-31T13:05:36.121Z,24.30
2022-07-31T13:08:05.119Z,26.60
2022-07-31T13:10:33.800Z,24.17
2022-07-31T13:13:02.832Z,22.87
2022-07-31T13:15:32.938Z,28.83
2022-07-31T13:18:04.216Z,26.13
2022-07-31T13:20:32.930Z,26.27
2022-07-31T13:23:02.912Z,25.73
2022-07-31T13:25:31.930Z,24.17
2022-07-31T13:28:01.019Z,24.20
2022-07-31T13:30:29.988Z,24.13
2022-07-31T13:33:00.193Z,26.77
2022-07-31T13:35:29.373Z,27.30
2022-07-31T13:37:58.246Z,27.23
2022-07-31T13:40:41.492Z,23.67
2022-07-31T13:43:10.536Z,21.53
2022-07-31T13:45:39.448Z,21.90
2022-07-31T13:48:10.325Z,23.87
2022-07-31T13:50:39.918Z,26.40
2022-07-31T13:53:09.337Z,25.07
2022-07-31T13:55:38.712Z,23.57
2022-07-31T13:58:07.690Z,29.73
2022-07-31T14:00:36.866Z,28.33
2022-07-31T14:03:05.780Z,27.10
2022-07-31T14:05:40.000Z,27.00
2022-07-31T14:08:29.704Z,25.90
2022-07-31T14:10:58.283Z,24.30
2022-07-31T14:13:27.155Z,25.50
2022-07-31T14:15:56.028Z,24.70
2022-07-31T14:18:25.093Z,25.30
2022-07-31T14:20:55.254Z,31.67
2022-07-31T14:23:31.601Z,27.73
2022-07-31T14:26:04.333Z,28.07
2022-07-31T14:28:33.004Z,22.63
2022-07-31T14:31:01.740Z,21.17
2022-07-31T14:33:30.541Z,22.03
2022-07-31T14:36:00.740Z,23.87
2022-07-31T14:38:29.542Z,24.00
2022-07-31T14:40:58.323Z,25.00
2022-07-31T14:43:27.120Z,24.00
2022-07-31T14:45:55.866Z,25.40
2022-07-31T14:48:24.682Z,24.17
2022-07-31T14:50:53.463Z,23.40
2022-07-31T14:53:23.627Z,24.87
2022-07-31T14:55:52.365Z,23.37
2022-07-31T14:58:21.578Z,24.73
2022-07-31T15:00:50.387Z,22.87
2022-07-31T15:03:20.268Z,23.50
2022-07-31T15:06:51.061Z,24.80
2022-07-31T15:08:40.753Z,25.37
2022-07-31T15:11:09.515Z,26.20
2022-07-31T15:13:39.075Z,22.67
2022-07-31T15:16:09.634Z,22.53
2022-07-31T15:18:38.391Z,23.03
2022-07-31T15:21:07.161Z,24.53
2022-07-31T15:23:36.138Z,55.17
2022-07-31T15:26:06.421Z,31.10
2022-07-31T15:28:35.149Z,22.37
2022-07-31T15:31:04.250Z,20.73
2022-07-31T15:33:33.332Z,21.20
2022-07-31T15:36:02.893Z,19.57
2022-07-31T15:38:31.804Z,19.17
2022-07-31T15:41:00.765Z,35.60
2022-07-31T15:43:32.283Z,24.20
2022-07-31T15:46:07.436Z,23.70
2022-07-31T15:48:36.512Z,20.13
2022-07-31T15:51:05.817Z,19.83
2022-07-31T15:53:39.122Z,17.90
2022-07-31T15:56:08.267Z,19.40
2022-07-31T15:58:38.514Z,18.00
2022-07-31T16:01:07.386Z,17.53
2022-07-31T16:03:50.471Z,17.93
2022-07-31T16:06:19.953Z,17.77
2022-07-31T16:08:56.967Z,18.33
2022-07-31T16:12:04.789Z,18.73
2022-07-31T16:14:16.002Z,18.50
2022-07-31T16:16:45.978Z,17.10
2022-07-31T16:19:16.537Z,16.97
2022-07-31T16:21:47.954Z,18.10
2022-07-31T16:24:16.613Z,17.17
2022-07-31T16:26:50.202Z,18.20
2022-07-31T16:29:57.857Z,18.53
2022-07-31T16:32:10.929Z,17.57
2022-07-31T16:34:39.902Z,16.73
2022-07-31T16:37:08.675Z,17.70
2022-07-31T16:39:37.425Z,19.80
2022-07-31T16:42:06.584Z,19.73
2022-07-31T16:44:38.373Z,19.43
2022-07-31T16:47:08.698Z,20.13
2022-07-31T16:49:39.335Z,20.07
2022-07-31T16:52:08.423Z,20.20
2022-07-31T16:54:37.260Z,22.10
2022-07-31T16:57:06.285Z,19.33
2022-07-31T16:59:57.040Z,17.97
2022-07-31T17:02:26.049Z,18.07
2022-07-31T17:04:54.901Z,18.03
2022-07-31T17:07:23.768Z,18.00
2022-07-31T17:09:52.703Z,18.90
2022-07-31T17:12:25.884Z,18.00
2022-07-31T17:15:04.276Z,19.67
2022-07-31T17:17:33.095Z,21.57
2022-07-31T17:20:01.838Z,20.00
2022-07-31T17:22:30.505Z,20.87
2022-07-31T17:24:59.333Z,22.07
2022-07-31T17:27:28.039Z,21.67
2022-07-31T17:29:56.721Z,23.27
2022-07-31T17:32:26.999Z,22.70
2022-07-31T17:34:55.697Z,21.13
2022-07-31T17:37:25.008Z,23.13
2022-07-31T17:39:56.378Z,20.53
2022-07-31T17:42:27.458Z,20.00
2022-07-31T17:44:59.021Z,18.87
2022-07-31T17:47:30.268Z,18.50
2022-07-31T17:49:59.073Z,18.50
2022-07-31T17:52:28.238Z,20.07
2022-07-31T17:54:56.925Z,19.23
2022-07-31T17:57:29.537Z,19.53
2022-07-31T17:59:58.886Z,19.53
2022-07-31T18:02:29.382Z,18.67
2022-07-31T18:04:58.245Z,18.37
2022-07-31T18:07:28.389Z,21.60
2022-07-31T18:09:57.442Z,23.67
2022-07-31T18:12:57.622Z,25.03
2022-07-31T18:15:35.863Z,25.40
2022-07-31T18:18:06.528Z,26.47
2022-07-31T18:20:35.705Z,25.43
2022-07-31T18:23:04.471Z,26.07
2022-07-31T18:25:33.246Z,25.90
2022-07-31T18:28:01.994Z,107.63
2022-07-31T18:30:33.693Z,37.77
2022-07-31T18:33:06.328Z,67.43
2022-07-31T18:35:35.157Z,38.13
2022-07-31T18:38:03.912Z,35.37
2022-07-31T18:40:33.012Z,31.20
2022-07-31T18:43:02.577Z,31.80
2022-07-31T18:45:31.330Z,36.23
2022-07-31T18:48:00.265Z,35.63
2022-07-31T18:51:00.669Z,39.53
2022-07-31T18:53:19.835Z,40.93
2022-07-31T18:55:49.222Z,39.47
2022-07-31T18:58:17.970Z,41.77
2022-07-31T19:00:47.979Z,42.13
2022-07-31T19:03:20.740Z,43.67
2022-07-31T19:05:53.168Z,44.50
2022-07-31T19:08:22.153Z,45.20
2022-07-31T19:10:53.735Z,44.93
2022-07-31T19:13:22.520Z,44.57
2022-07-31T19:15:53.218Z,44.67
2022-07-31T19:18:28.150Z,43.67
2022-07-31T19:21:19.143Z,42.93
2022-07-31T19:23:47.674Z,40.23
2022-07-31T19:26:16.480Z,36.03
2022-07-31T19:28:45.281Z,37.20
2022-07-31T19:31:14.562Z,30.97
2022-07-31T19:33:43.421Z,36.60
2022-07-31T19:36:15.583Z,38.20
2022-07-31T19:38:45.510Z,43.03
2022-07-31T19:41:16.078Z,42.87
2022-07-31T19:43:45.914Z,35.07
2022-07-31T19:46:14.647Z,35.77
2022-07-31T19:48:44.837Z,36.37
2022-07-31T19:51:16.002Z,35.90
2022-07-31T19:53:45.333Z,34.30
2022-07-31T19:56:20.529Z,34.13
2022-07-31T19:58:50.319Z,34.70
2022-07-31T20:01:20.506Z,36.00
2022-07-31T20:03:50.363Z,34.03
2022-07-31T20:06:20.787Z,34.77
2022-07-31T20:08:49.569Z,35.30
2022-07-31T20:11:18.514Z,41.00
2022-07-31T20:13:47.344Z,36.53
2022-07-31T20:16:16.426Z,35.13
2022-07-31T20:18:47.305Z,34.20
2022-07-31T20:21:16.162Z,34.67
2022-07-31T20:23:48.923Z,33.93
2022-07-31T20:26:18.986Z,34.03
2022-07-31T20:28:47.711Z,34.43
2022-07-31T20:31:21.700Z,34.20
2022-07-31T20:33:57.796Z,34.47
2022-07-31T20:36:27.438Z,31.97
2022-07-31T20:38:58.985Z,34.07
2022-07-31T20:41:28.488Z,36.37
2022-07-31T20:43:57.309Z,34.33
2022-07-31T20:46:26.153Z,35.50
2022-07-31T20:48:56.498Z,35.37
2022-07-31T20:51:25.314Z,35.13
2022-07-31T20:53:55.105Z,34.33
2022-07-31T20:56:25.884Z,36.10
2022-07-31T20:58:55.062Z,35.97
2022-07-31T21:01:23.859Z,34.37
2022-07-31T21:03:55.399Z,34.57
2022-07-31T21:06:24.166Z,31.93
2022-07-31T21:08:52.834Z,32.73
2022-07-31T21:11:21.652Z,34.80
2022-07-31T21:14:03.060Z,33.57
2022-07-31T21:16:32.118Z,34.37
2022-07-31T21:19:00.873Z,36.37
2022-07-31T21:21:29.609Z,36.00
2022-07-31T21:24:00.975Z,35.70
2022-07-31T21:26:32.334Z,35.33
2022-07-31T21:29:03.985Z,32.37
2022-07-31T21:31:33.487Z,35.00
2022-07-31T21:34:02.770Z,34.33
2022-07-31T21:36:32.041Z,35.10
2022-07-31T21:39:01.333Z,35.50
2022-07-31T21:41:30.529Z,34.17
2022-07-31T21:44:00.087Z,33.20
2022-07-31T21:46:31.012Z,33.67
2022-07-31T21:49:00.371Z,34.53
2022-07-31T21:51:29.677Z,33.60
2022-07-31T21:53:58.375Z,34.73
2022-07-31T21:56:27.512Z,36.43
2022-07-31T21:58:56.287Z,36.03
2022-07-31T22:01:25.230Z,35.80
2022-07-31T22:03:56.201Z,36.20
2022-07-31T22:06:42.243Z,35.80
2022-07-31T22:09:11.099Z,36.30
2022-07-31T22:11:39.827Z,36.10
2022-07-31T22:14:08.958Z,35.63
2022-07-31T22:16:38.922Z,37.07
2022-07-31T22:19:09.800Z,39.53
2022-07-31T22:21:38.992Z,39.53
2022-07-31T22:24:09.416Z,22.80
2022-07-31T22:26:38.784Z,9.17
2022-07-31T22:29:07.865Z,5.17
2022-07-31T22:31:38.372Z,11.87
2022-07-31T22:34:36.927Z,3.00
2022-07-31T22:37:07.819Z,3.57
2022-07-31T22:39:38.882Z,3.30
2022-07-31T22:42:09.470Z,4.00
2022-07-31T22:44:38.895Z,3.30
2022-07-31T22:47:08.842Z,3.47
2022-07-31T22:49:39.549Z,5.00
2022-07-31T22:52:08.947Z,6.00
2022-07-31T22:54:37.645Z,6.43
2022-07-31T22:57:06.878Z,5.27
2022-07-31T22:59:35.705Z,8.00
2022-07-31T23:02:05.387Z,6.20
2022-07-31T23:04:35.703Z,7.00
2022-07-31T23:07:06.553Z,8.37
2022-07-31T23:09:35.413Z,7.37
2022-07-31T23:12:04.964Z,9.43
2022-07-31T23:14:34.230Z,7.53
2022-07-31T23:17:03.426Z,10.40
2022-07-31T23:19:32.229Z,11.00
2022-07-31T23:22:00.984Z,10.50
2022-07-31T23:24:31.147Z,9.70
2022-07-31T23:26:59.931Z,11.07
2022-07-31T23:29:28.617Z,10.60
2022-07-31T23:31:57.357Z,10.33
2022-07-31T23:34:26.207Z,9.10
2022-07-31T23:36:57.971Z,12.60
2022-07-31T23:39:26.797Z,12.33
2022-07-31T23:42:14.107Z,15.20
2022-07-31T23:44:42.841Z,11.80
2022-07-31T23:47:15.845Z,13.97
2022-07-31T23:49:44.790Z,13.77
2022-07-31T23:52:13.551Z,13.23
2022-07-31T23:54:42.327Z,13.67
2022-07-31T23:57:12.534Z,14.27
2022-07-31T23:59:41.395Z,15.83
